Time;durP1;ratioP1;P1;durP2;ratioP2;P2;SDS_P1;SDS_P2;PMS_P1;PMS_P2;Temp;Humidity;BMP_temperature;BMP_pressure;BME280_temperature;BME280_humidity;BME280_pressure;Samples;Min_cycle;Max_cycle;Signal;HPM_P1;HPM_P2
2022/01/07 00:00:18;;;;;;;0.28;0.28;;;4.40;99.90;;;;;;5056232;28;20041;-89
2022/01/07 00:02:50;;;;;;;0.10;0.10;;;3.80;99.90;;;;;;5039664;28;20484;-88
2022/01/07 00:05:16;;;;;;;0.13;0.13;;;3.80;99.90;;;;;;5039443;28;20041;-89
2022/01/07 00:07:42;;;;;;;2.35;0.40;;;3.90;99.90;;;;;;5039473;28;20044;-89
2022/01/07 00:10:11;;;;;;;0.00;0.00;;;4.10;99.90;;;;;;5039540;28;20044;-89
2022/01/07 00:12:37;;;;;;;0.00;0.00;;;3.80;99.90;;;;;;5039288;28;20368;-88
2022/01/07 00:15:05;;;;;;;0.70;0.60;;;3.90;99.90;;;;;;5038805;28;20132;-89
2022/01/07 00:17:30;;;;;;;0.30;0.25;;;3.90;99.90;;;;;;5039783;28;20143;-88
2022/01/07 00:19:56;;;;;;;0.55;0.55;;;3.90;99.90;;;;;;5056171;28;20472;-89
2022/01/07 00:22:22;;;;;;;0.10;0.00;;;3.80;99.90;;;;;;5038834;28;20053;-90
2022/01/07 00:24:48;;;;;;;0.00;0.00;;;3.90;99.90;;;;;;5039404;28;20052;-89
2022/01/07 00:27:14;;;;;;;1.85;0.00;;;4.00;99.90;;;;;;5056179;28;20048;-89
2022/01/07 00:29:40;;;;;;;3.67;1.08;;;3.80;99.90;;;;;;5042701;28;20044;-89
2022/01/07 00:32:06;;;;;;;0.08;0.08;;;3.90;99.90;;;;;;5042794;28;20051;-89
2022/01/07 00:34:32;;;;;;;0.00;0.00;;;3.90;99.90;;;;;;5042685;28;20097;-89
2022/01/07 00:36:58;;;;;;;0.00;0.00;;;3.90;99.90;;;;;;5042725;28;20489;-89
2022/01/07 00:39:24;;;;;;;0.25;0.25;;;4.00;99.90;;;;;;5042801;28;20040;-89
2022/01/07 00:41:49;;;;;;;0.55;0.20;;;3.80;99.90;;;;;;5042642;28;20122;-89
2022/01/07 00:44:15;;;;;;;0.17;0.17;;;3.80;99.90;;;;;;5059550;28;20051;-89
2022/01/07 00:46:41;;;;;;;0.65;0.20;;;3.80;99.90;;;;;;5042270;28;20037;-89
2022/01/07 00:49:07;;;;;;;0.38;0.30;;;3.80;99.90;;;;;;5058905;28;20043;-89
2022/01/07 00:51:33;;;;;;;0.35;0.35;;;3.90;99.90;;;;;;5042314;28;20084;-89
2022/01/07 00:53:58;;;;;;;0.00;0.00;;;3.70;99.90;;;;;;5042661;28;20056;-89
2022/01/07 00:56:24;;;;;;;0.00;0.00;;;4.00;99.90;;;;;;5042414;28;20098;-89
2022/01/07 00:58:50;;;;;;;0.10;0.08;;;3.70;99.90;;;;;;5042722;28;20052;-89
2022/01/07 01:01:17;;;;;;;0.00;0.00;;;3.70;99.90;;;;;;5042047;28;20472;-89
2022/01/07 01:03:43;;;;;;;0.10;0.10;;;3.80;99.90;;;;;;5042311;28;20101;-89
2022/01/07 01:06:08;;;;;;;0.00;0.00;;;3.70;99.90;;;;;;5041920;28;20052;-89
2022/01/07 01:08:34;;;;;;;0.00;0.00;;;3.60;99.90;;;;;;5058782;28;20082;-89
2022/01/07 01:11:00;;;;;;;1.65;0.22;;;3.70;99.90;;;;;;5041900;28;20048;-88
2022/01/07 01:13:26;;;;;;;0.20;0.20;;;3.60;99.90;;;;;;5042712;28;20052;-89
2022/01/07 01:15:52;;;;;;;0.00;0.00;;;3.60;99.90;;;;;;5041685;28;20088;-89
2022/01/07 01:18:17;;;;;;;0.45;0.20;;;3.70;99.90;;;;;;5042179;28;20048;-89
2022/01/07 01:20:43;;;;;;;0.00;0.00;;;3.50;99.90;;;;;;5041705;28;20438;-89
2022/01/07 01:23:09;;;;;;;0.00;0.00;;;3.50;99.90;;;;;;5058390;28;20048;-89
2022/01/07 01:25:35;;;;;;;0.00;0.00;;;3.50;99.90;;;;;;5058182;28;20097;-89
2022/01/07 01:28:01;;;;;;;0.28;0.10;;;3.50;99.90;;;;;;5042094;28;20055;-90
2022/01/07 01:30:28;;;;;;;0.15;0.05;;;3.40;99.90;;;;;;5058452;28;20044;-90
2022/01/07 01:32:54;;;;;;;0.22;0.22;;;3.40;99.90;;;;;;5041988;28;20049;-90
2022/01/07 01:35:21;;;;;;;0.05;0.05;;;3.40;99.90;;;;;;5041394;28;20388;-89
2022/01/07 01:37:48;;;;;;;0.00;0.00;;;4.00;99.90;;;;;;5041279;28;20044;-89
2022/01/07 01:40:15;;;;;;;0.00;0.00;;;3.40;99.90;;;;;;5040788;28;20488;-89
2022/01/07 01:42:41;;;;;;;0.90;0.55;;;3.40;99.90;;;;;;5058184;28;20043;-89
2022/01/07 01:45:09;;;;;;;0.00;0.00;;;3.30;99.90;;;;;;5058032;28;20080;-89
2022/01/07 01:47:36;;;;;;;0.13;0.13;;;3.30;99.90;;;;;;5041533;28;20056;-90
2022/01/07 01:50:02;;;;;;;0.00;0.00;;;3.30;99.90;;;;;;5041617;28;20044;-90
2022/01/07 01:52:28;;;;;;;0.20;0.20;;;3.60;99.90;;;;;;5058029;28;20048;-90
2022/01/07 01:54:54;;;;;;;0.00;0.00;;;3.20;99.90;;;;;;5058565;28;20468;-89
2022/01/07 01:57:20;;;;;;;0.00;0.00;;;3.20;99.90;;;;;;5041438;28;20052;-90
2022/01/07 01:59:45;;;;;;;0.00;0.00;;;4.10;99.90;;;;;;5041379;28;20049;-90
2022/01/07 02:02:11;;;;;;;0.00;0.00;;;3.20;99.90;;;;;;5041461;28;20067;-90
2022/01/07 02:04:40;;;;;;;1.85;0.30;;;3.10;99.90;;;;;;5041294;28;20037;-90
2022/01/07 02:07:08;;;;;;;0.10;0.10;;;3.10;99.90;;;;;;5041090;28;20040;-90
2022/01/07 02:09:35;;;;;;;0.00;0.00;;;3.10;99.90;;;;;;5041749;28;20048;-90
2022/01/07 02:12:06;;;;;;;0.30;0.20;;;3.20;99.90;;;;;;5057772;28;20044;-90
2022/01/07 02:14:34;;;;;;;0.00;0.00;;;3.10;99.90;;;;;;5057608;28;20048;-90
2022/01/07 02:17:10;;;;;;;0.00;0.00;;;3.00;99.90;;;;;;5041130;28;20063;-90
2022/01/07 02:19:39;;;;;;;1.55;0.65;;;3.30;99.90;;;;;;5041165;28;20163;-90
2022/01/07 02:22:05;;;;;;;0.08;0.08;;;3.00;99.90;;;;;;5041615;28;20041;-89
2022/01/07 02:24:31;;;;;;;1.08;1.08;;;3.00;99.90;;;;;;5040911;28;20047;-90
2022/01/07 02:26:57;;;;;;;4.38;0.40;;;3.00;99.90;;;;;;5057540;28;20044;-90
2022/01/07 02:29:23;;;;;;;0.00;0.00;;;3.50;99.90;;;;;;5040914;28;20055;-89
2022/01/07 02:31:49;;;;;;;0.38;0.20;;;3.00;99.90;;;;;;5041064;28;20056;-89
2022/01/07 02:34:15;;;;;;;0.00;0.00;;;3.00;99.90;;;;;;5040894;28;20085;-90
2022/01/07 02:36:42;;;;;;;0.00;0.00;;;3.00;99.90;;;;;;5056884;28;20127;-89
2022/01/07 02:39:08;;;;;;;0.00;0.00;;;2.90;99.90;;;;;;5040628;28;20111;-90
2022/01/07 02:41:34;;;;;;;0.00;0.00;;;3.00;99.90;;;;;;5040688;28;20400;-90
2022/01/07 02:43:59;;;;;;;0.00;0.00;;;3.00;99.90;;;;;;5056780;28;20044;-90
2022/01/07 02:46:25;;;;;;;0.05;0.05;;;2.90;99.90;;;;;;5040407;28;20044;-90
2022/01/07 02:48:51;;;;;;;0.00;0.00;;;2.90;99.90;;;;;;5057051;28;20048;-90
2022/01/07 02:51:17;;;;;;;0.00;0.00;;;2.90;99.90;;;;;;5039748;28;20446;-90
2022/01/07 02:53:43;;;;;;;0.00;0.00;;;2.90;99.90;;;;;;5040519;28;20040;-90
2022/01/07 02:56:08;;;;;;;0.00;0.00;;;2.90;99.90;;;;;;5040412;28;20090;-90
2022/01/07 02:58:34;;;;;;;1.77;0.00;;;2.90;99.90;;;;;;5040384;28;20054;-89
2022/01/07 03:01:00;;;;;;;0.00;0.00;;;3.00;99.90;;;;;;5040132;28;20052;-90
2022/01/07 03:03:25;;;;;;;0.03;0.03;;;3.30;99.90;;;;;;5040139;28;20078;-90
2022/01/07 03:05:51;;;;;;;0.10;0.10;;;2.80;99.90;;;;;;5040563;28;20044;-91
2022/01/07 03:08:17;;;;;;;0.00;0.00;;;2.90;99.90;;;;;;5056664;28;20068;-91
2022/01/07 03:10:42;;;;;;;0.00;0.00;;;3.20;99.90;;;;;;5040010;28;20068;-91
2022/01/07 03:13:09;;;;;;;0.00;0.00;;;2.90;99.90;;;;;;5040138;28;20079;-91
2022/01/07 03:15:37;;;;;;;0.10;0.10;;;2.80;99.90;;;;;;5039760;28;20418;-91
2022/01/07 03:18:05;;;;;;;0.10;0.10;;;2.90;99.90;;;;;;5039617;28;20491;-90
2022/01/07 03:20:37;;;;;;;0.25;0.08;;;2.90;99.90;;;;;;5056597;28;20041;-90
2022/01/07 03:23:07;;;;;;;0.10;0.10;;;2.80;99.90;;;;;;5039826;28;20113;-91
2022/01/07 03:25:33;;;;;;;0.10;0.10;;;2.80;99.90;;;;;;5039921;28;20044;-90
2022/01/07 03:27:59;;;;;;;0.52;0.10;;;2.90;99.90;;;;;;5039978;28;20059;-90
2022/01/07 03:30:25;;;;;;;0.25;0.10;;;2.80;99.90;;;;;;5056616;28;20499;-90
2022/01/07 03:32:51;;;;;;;2.13;0.75;;;2.90;99.90;;;;;;5039502;28;20048;-89
2022/01/07 03:35:17;;;;;;;0.00;0.00;;;2.80;99.90;;;;;;5039441;28;20506;-90
2022/01/07 03:37:44;;;;;;;0.82;0.43;;;3.60;99.90;;;;;;5040130;28;20045;-90
2022/01/07 03:40:12;;;;;;;0.00;0.00;;;2.80;99.90;;;;;;5040278;28;20053;-90
2022/01/07 03:42:38;;;;;;;0.17;0.17;;;2.80;99.90;;;;;;5039704;28;20060;-90
2022/01/07 03:45:05;;;;;;;0.00;0.00;;;2.80;99.90;;;;;;5039765;28;20055;-90
2022/01/07 03:47:31;;;;;;;0.45;0.05;;;2.80;99.90;;;;;;5056326;28;20062;-91
2022/01/07 03:49:56;;;;;;;0.20;0.20;;;2.80;99.90;;;;;;5039875;28;20078;-90
2022/01/07 03:52:22;;;;;;;0.03;0.00;;;2.80;99.90;;;;;;5056920;28;20040;-91
2022/01/07 03:54:50;;;;;;;0.10;0.08;;;2.80;99.90;;;;;;5039375;28;20036;-90
2022/01/07 03:57:16;;;;;;;0.38;0.38;;;2.80;99.90;;;;;;5039690;28;20048;-91
2022/01/07 03:59:41;;;;;;;0.05;0.05;;;2.80;99.90;;;;;;5039620;28;20504;-91
2022/01/07 04:02:07;;;;;;;0.00;0.00;;;2.90;99.90;;;;;;5056832;28;20040;-90
2022/01/07 04:04:33;;;;;;;0.32;0.32;;;2.90;99.90;;;;;;5043685;28;20430;-90
2022/01/07 04:06:59;;;;;;;0.10;0.10;;;2.90;99.90;;;;;;5060123;28;20133;-90
2022/01/07 04:09:24;;;;;;;0.10;0.10;;;2.90;99.90;;;;;;5043865;28;20044;-91
2022/01/07 04:11:51;;;;;;;2.75;0.20;;;2.90;99.90;;;;;;5043505;28;20048;-91
2022/01/07 04:14:17;;;;;;;0.10;0.10;;;2.90;99.90;;;;;;5043120;28;20546;-90
2022/01/07 04:16:43;;;;;;;0.05;0.05;;;3.00;99.90;;;;;;5043119;28;20056;-91
2022/01/07 04:19:08;;;;;;;0.20;0.10;;;3.30;99.90;;;;;;5059751;28;20048;-90
2022/01/07 04:21:34;;;;;;;0.35;0.22;;;3.50;99.90;;;;;;5059958;28;20041;-91
2022/01/07 04:24:00;;;;;;;0.00;0.00;;;4.10;99.90;;;;;;5059797;28;20088;-90
2022/01/07 04:26:25;;;;;;;0.03;0.03;;;2.90;99.90;;;;;;5043638;28;20052;-91
2022/01/07 04:28:51;;;;;;;0.00;0.00;;;2.90;99.90;;;;;;5059766;28;20049;-90
2022/01/07 04:31:17;;;;;;;1.85;0.70;;;3.00;99.90;;;;;;5059912;28;20041;-92
2022/01/07 04:33:42;;;;;;;0.13;0.10;;;3.00;99.90;;;;;;5059283;28;20499;-91
2022/01/07 04:36:08;;;;;;;0.52;0.13;;;3.00;99.90;;;;;;5042976;28;20106;-91
2022/01/07 04:38:34;;;;;;;0.13;0.13;;;3.50;99.90;;;;;;5042946;28;20044;-91
2022/01/07 04:41:00;;;;;;;0.10;0.10;;;3.60;99.90;;;;;;5059576;28;20045;-90
2022/01/07 04:43:25;;;;;;;0.10;0.10;;;3.30;99.90;;;;;;5042994;28;20040;-91
2022/01/07 04:45:51;;;;;;;0.10;0.10;;;3.00;99.90;;;;;;5043147;28;20135;-90
2022/01/07 04:48:18;;;;;;;0.00;0.00;;;4.10;99.90;;;;;;5043068;28;20365;-91
2022/01/07 04:50:43;;;;;;;0.15;0.15;;;4.40;99.90;;;;;;5059559;28;20044;-91
2022/01/07 04:53:09;;;;;;;0.17;0.17;;;3.10;99.90;;;;;;5059164;28;20075;-90
2022/01/07 04:55:37;;;;;;;0.00;0.00;;;3.00;99.90;;;;;;5042551;28;20045;-92
2022/01/07 04:58:09;;;;;;;0.43;0.00;;;3.00;99.90;;;;;;5042676;28;20053;-90
2022/01/07 05:00:36;;;;;;;0.20;0.20;;;3.10;99.90;;;;;;5042176;28;20052;-90
2022/01/07 05:03:02;;;;;;;0.15;0.10;;;2.90;99.90;;;;;;5042501;28;20083;-89
2022/01/07 05:05:28;;;;;;;0.20;0.15;;;3.00;99.90;;;;;;5042576;28;20488;-90
2022/01/07 05:07:54;;;;;;;0.28;0.20;;;3.00;99.90;;;;;;5059164;28;20127;-91
2022/01/07 05:10:20;;;;;;;0.00;0.00;;;3.00;99.90;;;;;;5042380;28;20140;-92
2022/01/07 05:12:46;;;;;;;0.00;0.00;;;3.00;99.90;;;;;;5058728;28;20083;-91
2022/01/07 05:15:14;;;;;;;0.08;0.05;;;3.00;99.90;;;;;;5041345;28;20131;-91
2022/01/07 05:17:40;;;;;;;0.00;0.00;;;3.00;99.90;;;;;;5042910;28;20131;-91
2022/01/07 05:20:06;;;;;;;0.15;0.05;;;3.00;99.90;;;;;;5059262;28;20097;-90
2022/01/07 05:22:32;;;;;;;0.00;0.00;;;3.00;99.90;;;;;;5058649;28;20103;-90
2022/01/07 05:24:58;;;;;;;0.00;0.00;;;3.00;99.90;;;;;;5042233;28;20040;-91
2022/01/07 05:27:24;;;;;;;4.40;1.13;;;3.00;99.90;;;;;;5042131;28;20041;-91
2022/01/07 05:29:49;;;;;;;0.17;0.17;;;3.00;99.90;;;;;;5042395;28;20144;-91
2022/01/07 05:32:15;;;;;;;0.43;0.43;;;3.30;99.90;;;;;;5041881;28;20472;-92
2022/01/07 05:34:41;;;;;;;0.00;0.00;;;3.00;99.90;;;;;;5041857;28;20098;-92
2022/01/07 05:37:09;;;;;;;0.70;0.70;;;3.00;99.90;;;;;;5042038;28;20482;-91
2022/01/07 05:39:38;;;;;;;0.10;0.10;;;3.00;99.90;;;;;;5058147;28;20055;-91
2022/01/07 05:42:05;;;;;;;0.05;0.05;;;2.90;99.90;;;;;;5058449;28;20045;-91
2022/01/07 05:44:31;;;;;;;0.32;0.10;;;2.90;99.90;;;;;;5041655;28;20139;-91
2022/01/07 05:46:56;;;;;;;0.00;0.00;;;3.20;99.90;;;;;;5041535;28;20076;-91
2022/01/07 05:49:22;;;;;;;0.10;0.08;;;3.00;99.90;;;;;;5041759;28;20044;-91
2022/01/07 05:51:48;;;;;;;0.00;0.00;;;3.00;99.90;;;;;;5041978;28;20046;-90
2022/01/07 05:54:14;;;;;;;0.00;0.00;;;3.00;99.90;;;;;;5041175;28;20468;-91
2022/01/07 05:56:39;;;;;;;0.25;0.25;;;3.00;99.90;;;;;;5041940;28;20098;-90
2022/01/07 05:59:05;;;;;;;0.00;0.00;;;3.00;99.90;;;;;;5041319;28;20048;-91
2022/01/07 06:01:31;;;;;;;0.00;0.00;;;3.00;99.90;;;;;;5041461;28;20049;-91
2022/01/07 06:03:57;;;;;;;0.10;0.10;;;3.00;99.90;;;;;;5058112;28;20055;-91
2022/01/07 06:06:23;;;;;;;0.00;0.00;;;3.10;99.90;;;;;;5041590;28;20507;-91
2022/01/07 06:08:48;;;;;;;0.00;0.00;;;3.00;99.90;;;;;;5041339;28;20388;-91
2022/01/07 06:11:14;;;;;;;0.45;0.05;;;3.00;99.90;;;;;;5041316;28;20638;-91
2022/01/07 06:13:40;;;;;;;0.00;0.00;;;3.10;99.90;;;;;;5041043;28;20051;-91
2022/01/07 06:16:06;;;;;;;0.00;0.00;;;3.10;99.90;;;;;;5057411;28;20488;-90
2022/01/07 06:18:35;;;;;;;0.00;0.00;;;2.90;99.90;;;;;;5041107;28;20048;-90
2022/01/07 06:21:00;;;;;;;0.00;0.00;;;3.10;99.90;;;;;;5041003;28;20385;-90
2022/01/07 06:23:26;;;;;;;0.00;0.00;;;3.10;99.90;;;;;;5040543;28;20055;-89
2022/01/07 06:25:52;;;;;;;0.00;0.00;;;3.00;99.90;;;;;;5056677;28;20046;-89
2022/01/07 06:28:19;;;;;;;0.00;0.00;;;3.40;99.90;;;;;;5040654;28;20120;-90
2022/01/07 06:30:45;;;;;;;0.00;0.00;;;3.10;99.90;;;;;;5057336;28;20498;-90
2022/01/07 06:33:11;;;;;;;0.00;0.00;;;3.20;99.90;;;;;;5040586;28;20041;-90
2022/01/07 06:35:37;;;;;;;0.28;0.28;;;3.20;99.90;;;;;;5040042;28;20132;-90
2022/01/07 06:38:04;;;;;;;0.00;0.00;;;3.20;99.90;;;;;;5040150;28;20139;-89
2022/01/07 06:40:30;;;;;;;0.10;0.10;;;3.10;99.90;;;;;;5039968;28;20094;-89
2022/01/07 06:42:59;;;;;;;0.10;0.00;;;3.20;99.90;;;;;;5040450;28;20133;-89
2022/01/07 06:45:25;;;;;;;0.25;0.00;;;3.20;99.90;;;;;;5056991;28;20049;-90
2022/01/07 06:47:50;;;;;;;2.10;0.10;;;3.20;99.90;;;;;;5040768;28;20484;-90
2022/01/07 06:50:16;;;;;;;0.00;0.00;;;3.40;99.90;;;;;;5040415;28;20048;-90
2022/01/07 06:52:42;;;;;;;0.00;0.00;;;3.30;99.90;;;;;;5040458;28;20047;-90
2022/01/07 06:55:08;;;;;;;0.00;0.00;;;3.20;99.90;;;;;;5040350;28;20384;-90
2022/01/07 06:57:34;;;;;;;0.00;0.00;;;3.20;99.90;;;;;;5040519;28;20131;-89
2022/01/07 06:59:59;;;;;;;0.10;0.10;;;3.30;99.90;;;;;;5039821;28;20087;-90
2022/01/07 07:02:25;;;;;;;0.20;0.15;;;3.30;99.90;;;;;;5056764;28;20051;-89
2022/01/07 07:04:51;;;;;;;0.00;0.00;;;3.20;99.90;;;;;;5040217;28;20060;-90
2022/01/07 07:07:17;;;;;;;0.20;0.20;;;3.30;99.90;;;;;;5056802;28;20041;-90
2022/01/07 07:09:43;;;;;;;0.28;0.17;;;3.30;99.90;;;;;;5040362;28;20090;-91
2022/01/07 07:12:09;;;;;;;0.47;0.08;;;3.20;99.90;;;;;;5040065;28;20118;-89
2022/01/07 07:14:36;;;;;;;0.00;0.00;;;3.20;99.90;;;;;;5040440;28;20072;-90
2022/01/07 07:17:02;;;;;;;0.28;0.10;;;3.20;99.90;;;;;;5056519;28;20135;-92
2022/01/07 07:19:28;;;;;;;0.20;0.15;;;3.20;99.90;;;;;;5039037;28;20087;-90
2022/01/07 07:21:56;;;;;;;0.70;0.30;;;3.20;99.90;;;;;;5040128;28;20041;-92
2022/01/07 07:24:21;;;;;;;0.00;0.00;;;3.20;99.90;;;;;;5056963;28;20080;-92
2022/01/07 07:26:47;;;;;;;0.10;0.10;;;3.20;99.90;;;;;;5056730;28;20051;-91
2022/01/07 07:29:13;;;;;;;0.00;0.00;;;3.30;99.90;;;;;;5040065;28;20521;-92
2022/01/07 07:31:42;;;;;;;0.77;0.63;;;3.30;99.90;;;;;;5039877;28;20048;-90
2022/01/07 07:36:42;;;;;;;0.00;0.00;;;3.30;99.90;;;;;;5057114;28;20049;-91
2022/01/07 07:39:12;;;;;;;0.30;0.10;;;3.30;99.90;;;;;;5040132;28;20044;-93
2022/01/07 07:41:43;;;;;;;0.00;0.00;;;3.20;99.90;;;;;;5040234;28;20468;-91
2022/01/07 07:44:09;;;;;;;0.00;0.00;;;3.30;99.90;;;;;;5039862;28;20052;-92
2022/01/07 07:46:37;;;;;;;0.40;0.28;;;3.50;99.90;;;;;;5042542;28;20036;-91
2022/01/07 07:49:04;;;;;;;7.25;1.08;;;3.30;99.90;;;;;;5050666;28;20047;-92
2022/01/07 07:51:30;;;;;;;0.22;0.20;;;3.40;99.90;;;;;;5053477;28;20063;-92
2022/01/07 07:53:57;;;;;;;0.00;0.00;;;3.40;99.90;;;;;;5044359;28;20047;-91
2022/01/07 07:56:23;;;;;;;0.30;0.20;;;3.30;99.90;;;;;;5046770;28;20513;-93
2022/01/07 07:58:49;;;;;;;0.00;0.00;;;3.40;99.90;;;;;;5051061;28;20048;-92
2022/01/07 08:01:17;;;;;;;0.10;0.10;;;3.50;99.90;;;;;;5044611;28;20494;-92
2022/01/07 08:03:44;;;;;;;0.00;0.00;;;3.50;99.90;;;;;;5057738;28;20067;-91
2022/01/07 08:06:11;;;;;;;0.00;0.00;;;3.50;99.90;;;;;;5047681;28;20044;-92
2022/01/07 08:08:36;;;;;;;0.98;0.60;;;3.50;99.90;;;;;;5046353;28;20456;-91
2022/01/07 08:11:05;;;;;;;0.05;0.05;;;3.60;99.90;;;;;;5051811;28;20084;-92
2022/01/07 08:15:58;;;;;;;0.47;0.47;;;3.80;99.90;;;;;;5047638;28;20074;-92
2022/01/07 08:16:19;;;;;;;0.00;0.00;;;4.20;99.90;;;;;;5068273;28;20048;-89
2022/01/07 08:18:49;;;;;;;0.38;0.38;;;3.70;99.90;;;;;;5044066;28;20131;-89
2022/01/07 08:21:15;;;;;;;0.00;0.00;;;4.20;99.90;;;;;;5058807;28;20040;-88
2022/01/07 08:23:43;;;;;;;0.45;0.20;;;3.70;99.90;;;;;;5041803;28;20509;-87
2022/01/07 08:26:11;;;;;;;0.03;0.00;;;3.80;99.90;;;;;;5045863;28;20045;-90
2022/01/07 08:28:44;;;;;;;0.00;0.00;;;3.80;99.90;;;;;;5046553;28;20079;-90
2022/01/07 08:36:27;;;;;;;0.20;0.20;;;3.90;99.90;;;;;;5060611;28;20059;-90
2022/01/07 08:38:54;;;;;;;0.35;0.30;;;3.90;99.90;;;;;;5051733;28;20041;-90
2022/01/07 08:41:22;;;;;;;0.20;0.20;;;4.00;99.90;;;;;;5050495;28;20048;-88
2022/01/07 08:43:48;;;;;;;0.55;0.35;;;4.00;99.90;;;;;;5046681;28;20472;-87
2022/01/07 08:46:14;;;;;;;0.30;0.30;;;4.20;99.90;;;;;;5066058;28;20048;-88
2022/01/07 08:48:40;;;;;;;0.10;0.10;;;4.00;99.90;;;;;;5058585;28;20062;-87
2022/01/07 08:51:07;;;;;;;0.40;0.28;;;4.10;99.90;;;;;;5061355;28;20046;-87
2022/01/07 08:53:33;;;;;;;0.40;0.25;;;4.10;99.90;;;;;;5061426;28;20111;-88
2022/01/07 08:55:59;;;;;;;0.32;0.32;;;4.20;99.90;;;;;;5060935;28;20483;-91
2022/01/07 08:58:25;;;;;;;0.55;0.17;;;4.40;99.90;;;;;;5078806;28;20051;-89
2022/01/07 09:00:51;;;;;;;0.38;0.10;;;4.30;99.90;;;;;;5079033;28;20039;-90
2022/01/07 09:03:17;;;;;;;0.38;0.30;;;4.20;99.90;;;;;;5061837;28;20130;-90
2022/01/07 09:05:44;;;;;;;0.20;0.20;;;4.30;99.90;;;;;;5062088;28;20051;-90
2022/01/07 09:08:11;;;;;;;0.88;0.20;;;4.40;99.90;;;;;;5078761;28;20047;-89
2022/01/07 09:10:39;;;;;;;0.00;0.00;;;4.40;99.90;;;;;;5061717;28;20407;-89
2022/01/07 09:13:06;;;;;;;0.10;0.10;;;4.10;99.90;;;;;;5068923;28;20320;-90
2022/01/07 09:15:33;;;;;;;2.92;0.47;;;4.40;99.90;;;;;;5061526;28;20036;-90
2022/01/07 09:17:58;;;;;;;0.20;0.17;;;4.50;99.90;;;;;;5061260;28;20044;-90
2022/01/07 09:20:24;;;;;;;0.35;0.35;;;4.50;99.90;;;;;;5077983;28;20052;-90
2022/01/07 09:22:50;;;;;;;0.98;0.60;;;4.80;99.90;;;;;;5077996;28;20050;-90
2022/01/07 09:25:16;;;;;;;0.10;0.10;;;5.00;99.90;;;;;;5060810;28;20052;-89
2022/01/07 09:27:43;;;;;;;0.10;0.05;;;5.40;99.90;;;;;;5061954;28;20036;-89
2022/01/07 09:30:13;;;;;;;0.47;0.40;;;5.10;99.90;;;;;;5078057;28;20048;-89
2022/01/07 09:32:39;;;;;;;0.10;0.10;;;5.10;99.90;;;;;;5062220;28;20050;-89
2022/01/07 09:35:06;;;;;;;0.10;0.10;;;5.70;99.90;;;;;;5061424;28;20472;-89
2022/01/07 09:37:32;;;;;;;0.00;0.00;;;5.60;99.90;;;;;;5061302;28;20054;-89
2022/01/07 09:40:00;;;;;;;1.05;1.05;;;5.90;99.90;;;;;;5061862;28;20094;-90
2022/01/07 09:42:26;;;;;;;0.00;0.00;;;6.10;99.90;;;;;;5062091;28;20044;-89
2022/01/07 09:44:55;;;;;;;0.00;0.00;;;6.30;99.90;;;;;;5061655;28;20043;-90
2022/01/07 09:47:21;;;;;;;0.10;0.10;;;6.90;99.90;;;;;;5078019;28;20101;-90
2022/01/07 09:49:50;;;;;;;0.00;0.00;;;7.00;99.90;;;;;;5060620;28;20135;-89
2022/01/07 09:52:16;;;;;;;3.97;1.13;;;7.50;99.90;;;;;;5061125;28;20043;-90
2022/01/07 09:54:41;;;;;;;0.88;0.50;;;7.00;99.90;;;;;;5061066;28;20499;-89
2022/01/07 09:57:08;;;;;;;0.90;0.60;;;7.00;99.90;;;;;;5078058;28;20044;-90
2022/01/07 09:59:34;;;;;;;2.38;0.47;;;6.70;99.90;;;;;;5061375;28;20079;-89
2022/01/07 10:02:06;;;;;;;0.68;0.65;;;6.40;99.90;;;;;;5077347;28;20083;-90
2022/01/07 10:04:39;;;;;;;0.08;0.08;;;6.00;99.90;;;;;;5078524;28;20149;-89
2022/01/07 10:07:16;;;;;;;0.03;0.00;;;5.90;99.90;;;;;;5077527;28;20043;-89
2022/01/07 10:10:02;;;;;;;0.77;0.15;;;5.80;99.90;;;;;;5061312;28;20055;-89
2022/01/07 10:12:48;;;;;;;0.57;0.57;;;5.60;99.90;;;;;;5060438;28;20186;-90
2022/01/07 10:15:22;;;;;;;2.03;0.10;;;5.50;99.90;;;;;;5061021;28;20050;-89
2022/01/07 10:17:59;;;;;;;0.15;0.13;;;5.40;99.90;;;;;;5077450;28;20052;-90
2022/01/07 10:20:31;;;;;;;0.10;0.10;;;5.50;99.90;;;;;;5061580;28;20043;-91
2022/01/07 10:23:13;;;;;;;0.85;0.55;;;5.30;99.90;;;;;;5060795;28;20407;-91
2022/01/07 10:25:45;;;;;;;0.22;0.00;;;5.20;99.90;;;;;;5061800;28;20391;-91
2022/01/07 10:28:12;;;;;;;0.47;0.35;;;5.20;99.90;;;;;;5060594;28;20567;-91
2022/01/07 10:30:41;;;;;;;0.10;0.00;;;6.20;99.90;;;;;;5060810;28;20044;-89
2022/01/07 10:33:17;;;;;;;0.00;0.00;;;5.20;99.90;;;;;;5059929;28;20047;-87
2022/01/07 10:35:43;;;;;;;0.10;0.08;;;6.00;99.90;;;;;;5059634;28;20105;-89
2022/01/07 10:38:15;;;;;;;1.00;0.28;;;5.10;99.90;;;;;;5060493;28;20040;-90
2022/01/07 10:40:41;;;;;;;0.00;0.00;;;5.00;99.90;;;;;;5061118;28;20046;-89
2022/01/07 10:43:13;;;;;;;0.00;0.00;;;5.60;99.90;;;;;;5077372;28;20074;-90
2022/01/07 10:45:59;;;;;;;0.22;0.22;;;4.90;99.90;;;;;;5060561;28;20035;-91
2022/01/07 10:48:36;;;;;;;0.20;0.20;;;4.80;99.90;;;;;;5060731;28;20048;-91
2022/01/07 10:51:09;;;;;;;0.00;0.00;;;4.80;99.90;;;;;;5060331;28;20469;-91
2022/01/07 10:53:35;;;;;;;0.00;0.00;;;4.90;99.90;;;;;;5077667;28;20094;-91
2022/01/07 10:56:06;;;;;;;0.65;0.15;;;4.90;99.90;;;;;;5060388;28;20052;-91
2022/01/07 10:58:57;;;;;;;0.20;0.00;;;4.80;99.90;;;;;;5061314;28;20083;-91
2022/01/07 11:01:31;;;;;;;0.00;0.00;;;4.90;99.90;;;;;;5077530;28;20131;-91
2022/01/07 11:03:59;;;;;;;0.15;0.15;;;5.00;99.90;;;;;;5059526;28;20044;-92
2022/01/07 11:06:26;;;;;;;0.20;0.20;;;5.00;99.90;;;;;;5060356;28;20053;-91
2022/01/07 11:08:54;;;;;;;0.20;0.20;;;5.10;99.90;;;;;;5060482;28;20058;-92
2022/01/07 11:11:21;;;;;;;0.03;0.03;;;5.10;99.90;;;;;;5059885;28;20067;-90
2022/01/07 11:13:48;;;;;;;2.85;0.93;;;5.20;99.90;;;;;;5059908;28;20479;-91
2022/01/07 11:16:13;;;;;;;0.10;0.05;;;5.50;99.90;;;;;;5060056;28;20071;-91
2022/01/07 11:18:42;;;;;;;5.72;1.00;;;5.30;99.90;;;;;;5077534;28;20070;-90
2022/01/07 11:21:10;;;;;;;0.10;0.10;;;5.50;99.90;;;;;;5076616;28;20048;-90
2022/01/07 11:23:37;;;;;;;0.52;0.50;;;5.90;99.90;;;;;;5059639;28;20087;-90
2022/01/07 11:26:06;;;;;;;0.05;0.05;;;5.70;99.90;;;;;;5060293;28;20086;-90
2022/01/07 11:28:32;;;;;;;0.05;0.00;;;6.00;99.90;;;;;;5076626;28;20044;-90
2022/01/07 11:31:13;;;;;;;1.65;0.38;;;6.80;99.90;;;;;;5060186;28;20051;-91
2022/01/07 11:33:40;;;;;;;0.38;0.38;;;7.30;99.90;;;;;;5059639;28;20127;-90
2022/01/07 11:36:33;;;;;;;0.20;0.20;;;7.20;99.90;;;;;;5059408;28;20059;-91
2022/01/07 11:39:04;;;;;;;0.00;0.00;;;6.90;99.90;;;;;;4976722;28;20521;-90
2022/01/07 11:41:56;;;;;;;0.22;0.22;;;6.70;99.90;;;;;;4960897;28;20050;-89
2022/01/07 11:44:26;;;;;;;0.80;0.60;;;6.40;99.90;;;;;;4960655;28;20050;-89
2022/01/07 11:47:12;;;;;;;0.00;0.00;;;6.20;99.90;;;;;;4960767;28;20469;-90
2022/01/07 11:49:38;;;;;;;7.13;1.20;;;6.10;99.90;;;;;;4960471;28;20173;-89
2022/01/07 11:52:39;;;;;;;1.92;0.35;;;5.80;99.90;;;;;;4960063;28;20137;-89
2022/01/07 11:55:32;;;;;;;0.22;0.17;;;5.80;99.90;;;;;;4899302;29;20056;-90
2022/01/07 11:58:09;;;;;;;0.00;0.00;;;5.60;99.90;;;;;;4899974;29;20056;-91
2022/01/07 12:00:59;;;;;;;0.00;0.00;;;5.40;99.90;;;;;;4881298;29;20500;-92
2022/01/07 12:03:35;;;;;;;0.35;0.32;;;5.20;99.90;;;;;;4883978;29;20539;-91
2022/01/07 12:06:27;;;;;;;0.00;0.00;;;5.00;99.90;;;;;;4864390;29;20063;-91
2022/01/07 12:09:25;;;;;;;0.00;0.00;;;4.70;99.90;;;;;;4865362;29;20060;-91
2022/01/07 12:12:02;;;;;;;5.57;1.98;;;4.80;99.90;;;;;;4865437;29;20060;-92
2022/01/07 12:14:33;;;;;;;0.00;0.00;;;4.70;99.90;;;;;;4865504;29;20045;-92
2022/01/07 12:17:01;;;;;;;0.90;0.60;;;4.70;99.90;;;;;;4933871;28;20407;-92
2022/01/07 12:19:47;;;;;;;0.00;0.00;;;4.60;99.90;;;;;;4940106;28;20047;-92
2022/01/07 12:22:16;;;;;;;0.70;0.40;;;4.50;99.90;;;;;;4940262;28;20054;-92
2022/01/07 12:24:43;;;;;;;0.00;0.00;;;4.50;99.90;;;;;;4943014;28;20055;-93
2022/01/07 12:27:16;;;;;;;0.00;0.00;;;4.50;99.90;;;;;;4960155;28;20557;-90
2022/01/07 12:29:44;;;;;;;0.47;0.47;;;4.80;99.90;;;;;;4944731;28;20478;-91
2022/01/07 12:32:11;;;;;;;0.00;0.00;;;4.40;99.90;;;;;;5025770;28;20230;-91
2022/01/07 12:34:45;;;;;;;0.00;0.00;;;4.60;99.90;;;;;;5043092;28;20365;-91
2022/01/07 12:37:17;;;;;;;0.00;0.00;;;4.40;99.90;;;;;;5043663;28;20391;-91
2022/01/07 12:40:05;;;;;;;0.00;0.00;;;4.40;99.90;;;;;;5059931;28;20054;-91
2022/01/07 12:42:38;;;;;;;0.00;0.00;;;4.30;99.90;;;;;;5059901;28;20056;-91
2022/01/07 12:45:04;;;;;;;0.00;0.00;;;4.30;99.90;;;;;;5059758;28;20088;-91
2022/01/07 12:47:32;;;;;;;0.00;0.00;;;4.30;99.90;;;;;;5042786;28;20801;-92
2022/01/07 12:50:00;;;;;;;0.00;0.00;;;4.20;99.90;;;;;;5059630;28;20573;-92
2022/01/07 12:52:27;;;;;;;0.00;0.00;;;4.10;99.90;;;;;;5042802;28;20510;-91
2022/01/07 12:54:56;;;;;;;0.00;0.00;;;4.20;99.90;;;;;;5059266;28;20041;-92
2022/01/07 12:57:29;;;;;;;0.00;0.00;;;4.50;99.90;;;;;;5043539;28;20044;-91
2022/01/07 13:00:10;;;;;;;0.00;0.00;;;4.40;99.90;;;;;;5043203;28;20079;-91
2022/01/07 13:02:37;;;;;;;0.00;0.00;;;4.80;99.90;;;;;;5059591;28;20055;-90
2022/01/07 13:05:23;;;;;;;0.00;0.00;;;5.30;99.90;;;;;;5042784;28;20085;-91
2022/01/07 13:08:00;;;;;;;4.40;1.45;;;5.50;99.90;;;;;;5042702;28;20544;-91
2022/01/07 13:10:31;;;;;;;0.00;0.00;;;5.70;99.90;;;;;;5059603;28;20041;-91